This is the latest recevied weather packets stored in our database for station/object KO4RJX-10. If no packets are shown the sender has not sent any weather packets the latest 10 day(s).
| Time | Temp. | Humidity | Pressure | Rain* | Wind** | Luminosity | Snow |
|---|---|---|---|---|---|---|---|
| 1777450984 | 13.33° C | 96% | 1007.5 hPa | 0 mm | - | - | - |
| 1777450183 | 13.33° C | 96% | 1007.1 hPa | 0 mm | - | - | - |
| 1777449383 | 13.33° C | 95% | 1006.8 hPa | 0 mm | - | - | - |
| 1777448313 | 13.33° C | 96% | 1007.5 hPa | 0 mm | - | - | - |
| 1777446983 | 13.89° C | 95% | 1007.8 hPa | 0 mm | - | - | - |
| 1777446583 | 13.89° C | 95% | 1007.8 hPa | 0 mm | - | - | - |
| 1777445383 | 13.89° C | 95% | 1008.1 hPa | 0 mm | - | - | - |
| 1777444315 | 13.89° C | 94% | 1007.8 hPa | 0 mm | - | - | - |
| 1777439783 | 14.44° C | 90% | 1009.1 hPa | 0 mm | - | - | - |
| 1777439113 | 14.44° C | 90% | 1009.5 hPa | 0 mm | - | - | - |
| 1777438583 | 14.44° C | 91% | 1009.5 hPa | 0 mm | - | - | - |
| 1777433517 | 15° C | 88% | 1010.8 hPa | 0 mm | - | - | - |
| 1777431783 | 15° C | 89% | 1011.2 hPa | 0 mm | - | - | - |
| 1777431384 | 15° C | 89% | 1011.2 hPa | 0 mm | - | - | - |
| 1777427783 | 15° C | 88% | 1010.5 hPa | 0 mm | - | - | - |
| 1777427383 | 15° C | 87% | 1010.5 hPa | 0 mm | - | - | - |
| 1777425384 | 16.11° C | 81% | 1010.2 hPa | 0 mm | - | - | - |
| 1777424984 | 16.67° C | 79% | 1010.2 hPa | 0 mm | - | - | - |
| 1777424183 | 16.67° C | 78% | 1009.8 hPa | 0 mm | - | - | - |
| 1777422183 | 17.78° C | 73% | 1009.1 hPa | 0 mm | - | - | - |
| 1777420983 | 18.89° C | 67% | 1008.8 hPa | 0 mm | - | - | - |
| 1777418583 | 21.11° C | 58% | 1009.5 hPa | 0 mm | - | - | - |
| 1777414183 | 22.22° C | 49% | 1010.2 hPa | 0 mm | - | - | - |
| 1777412714 | 22.78° C | 48% | 1009.8 hPa | 0 mm | - | - | - |
| 1777411783 | 22.78° C | 48% | 1009.8 hPa | 0 mm | - | - | - |
* Rain since midnight (hover to see other rain measurements)
** Current wind speed in m/s (hover to see current wind gust speed)